sensor_id;sensor_type;location;lat;lon;timestamp;temperature;humidity
16174;DHT22;14031;50.158;8.626;2023-02-13T00:00:16;9.60;99.90
16174;DHT22;14031;50.158;8.626;2023-02-13T00:02:43;9.60;99.90
16174;DHT22;14031;50.158;8.626;2023-02-13T00:05:10;9.60;99.90
16174;DHT22;14031;50.158;8.626;2023-02-13T00:07:38;9.60;99.90
16174;DHT22;14031;50.158;8.626;2023-02-13T00:10:06;9.60;99.90
16174;DHT22;14031;50.158;8.626;2023-02-13T00:12:33;9.60;99.90
16174;DHT22;14031;50.158;8.626;2023-02-13T00:15:00;9.60;99.90
16174;DHT22;14031;50.158;8.626;2023-02-13T00:17:27;9.50;99.90
16174;DHT22;14031;50.158;8.626;2023-02-13T00:19:54;9.60;99.90
16174;DHT22;14031;50.158;8.626;2023-02-13T00:22:21;9.60;99.90
16174;DHT22;14031;50.158;8.626;2023-02-13T00:24:50;9.60;99.90
16174;DHT22;14031;50.158;8.626;2023-02-13T00:27:17;9.60;99.90
16174;DHT22;14031;50.158;8.626;2023-02-13T00:29:43;9.60;99.90
16174;DHT22;14031;50.158;8.626;2023-02-13T00:32:10;9.60;99.90
16174;DHT22;14031;50.158;8.626;2023-02-13T00:34:37;9.60;99.90
16174;DHT22;14031;50.158;8.626;2023-02-13T00:37:04;9.60;99.90
16174;DHT22;14031;50.158;8.626;2023-02-13T00:39:30;9.60;99.90
16174;DHT22;14031;50.158;8.626;2023-02-13T00:41:58;9.60;99.90
16174;DHT22;14031;50.158;8.626;2023-02-13T00:44:25;9.70;99.90
16174;DHT22;14031;50.158;8.626;2023-02-13T00:46:52;9.60;99.90
16174;DHT22;14031;50.158;8.626;2023-02-13T00:49:19;9.60;99.90
16174;DHT22;14031;50.158;8.626;2023-02-13T00:51:45;9.60;99.90
16174;DHT22;14031;50.158;8.626;2023-02-13T00:54:12;9.60;99.90
16174;DHT22;14031;50.158;8.626;2023-02-13T00:56:39;9.70;99.90
16174;DHT22;14031;50.158;8.626;2023-02-13T00:59:07;9.60;99.90
16174;DHT22;14031;50.158;8.626;2023-02-13T01:01:34;9.50;99.90
16174;DHT22;14031;50.158;8.626;2023-02-13T01:04:01;9.50;99.90
16174;DHT22;14031;50.158;8.626;2023-02-13T01:06:28;9.50;99.90
16174;DHT22;14031;50.158;8.626;2023-02-13T01:08:54;9.50;99.90
16174;DHT22;14031;50.158;8.626;2023-02-13T01:11:21;9.50;99.90
16174;DHT22;14031;50.158;8.626;2023-02-13T01:13:48;9.50;99.90
16174;DHT22;14031;50.158;8.626;2023-02-13T01:16:16;9.50;99.90
16174;DHT22;14031;50.158;8.626;2023-02-13T01:18:43;9.50;99.90
16174;DHT22;14031;50.158;8.626;2023-02-13T01:21:16;9.50;99.90
16174;DHT22;14031;50.158;8.626;2023-02-13T01:23:43;9.40;99.90
16174;DHT22;14031;50.158;8.626;2023-02-13T01:26:15;9.40;99.90
16174;DHT22;14031;50.158;8.626;2023-02-13T01:28:42;9.50;99.90
16174;DHT22;14031;50.158;8.626;2023-02-13T01:31:09;9.50;99.90
16174;DHT22;14031;50.158;8.626;2023-02-13T01:33:37;9.50;99.90
16174;DHT22;14031;50.158;8.626;2023-02-13T01:36:10;9.50;99.90
16174;DHT22;14031;50.158;8.626;2023-02-13T01:38:39;9.50;99.90
16174;DHT22;14031;50.158;8.626;2023-02-13T01:41:06;9.50;99.90
16174;DHT22;14031;50.158;8.626;2023-02-13T01:43:49;9.50;99.90
16174;DHT22;14031;50.158;8.626;2023-02-13T01:46:20;9.40;99.90
16174;DHT22;14031;50.158;8.626;2023-02-13T01:48:50;9.50;99.90
16174;DHT22;14031;50.158;8.626;2023-02-13T01:51:21;9.60;99.90
16174;DHT22;14031;50.158;8.626;2023-02-13T01:53:53;9.40;99.90
16174;DHT22;14031;50.158;8.626;2023-02-13T01:56:24;9.40;99.90
16174;DHT22;14031;50.158;8.626;2023-02-13T01:58:54;9.40;99.90
16174;DHT22;14031;50.158;8.626;2023-02-13T02:01:23;9.40;99.90
16174;DHT22;14031;50.158;8.626;2023-02-13T02:03:54;9.40;99.90
16174;DHT22;14031;50.158;8.626;2023-02-13T02:06:26;9.40;99.90
16174;DHT22;14031;50.158;8.626;2023-02-13T02:08:56;9.40;99.90
16174;DHT22;14031;50.158;8.626;2023-02-13T02:11:31;9.40;99.90
16174;DHT22;14031;50.158;8.626;2023-02-13T02:14:00;9.40;99.90
16174;DHT22;14031;50.158;8.626;2023-02-13T02:16:28;9.30;99.90
16174;DHT22;14031;50.158;8.626;2023-02-13T02:18:58;9.20;99.90
16174;DHT22;14031;50.158;8.626;2023-02-13T02:21:45;9.30;99.90
16174;DHT22;14031;50.158;8.626;2023-02-13T02:24:37;9.20;99.90
16174;DHT22;14031;50.158;8.626;2023-02-13T02:27:25;9.20;99.90
16174;DHT22;14031;50.158;8.626;2023-02-13T02:30:22;9.10;99.90
16174;DHT22;14031;50.158;8.626;2023-02-13T02:33:05;9.10;99.90
16174;DHT22;14031;50.158;8.626;2023-02-13T02:35:40;9.00;99.90
16174;DHT22;14031;50.158;8.626;2023-02-13T02:38:19;9.00;99.90
16174;DHT22;14031;50.158;8.626;2023-02-13T02:40:57;8.90;99.90
16174;DHT22;14031;50.158;8.626;2023-02-13T02:43:38;8.90;99.90
16174;DHT22;14031;50.158;8.626;2023-02-13T02:46:13;8.90;99.90
16174;DHT22;14031;50.158;8.626;2023-02-13T02:48:49;8.80;99.90
16174;DHT22;14031;50.158;8.626;2023-02-13T02:51:39;8.70;99.90
16174;DHT22;14031;50.158;8.626;2023-02-13T02:54:09;8.80;99.90
16174;DHT22;14031;50.158;8.626;2023-02-13T02:56:53;8.60;99.90
16174;DHT22;14031;50.158;8.626;2023-02-13T02:59:24;8.50;99.90
16174;DHT22;14031;50.158;8.626;2023-02-13T03:02:11;8.50;99.90
16174;DHT22;14031;50.158;8.626;2023-02-13T03:04:58;8.40;99.90
16174;DHT22;14031;50.158;8.626;2023-02-13T03:07:44;8.40;99.90
16174;DHT22;14031;50.158;8.626;2023-02-13T03:10:17;8.40;99.90
16174;DHT22;14031;50.158;8.626;2023-02-13T03:13:06;8.30;99.90
16174;DHT22;14031;50.158;8.626;2023-02-13T03:15:51;8.20;99.90
16174;DHT22;14031;50.158;8.626;2023-02-13T03:18:38;8.10;99.90
16174;DHT22;14031;50.158;8.626;2023-02-13T03:21:31;8.10;99.90
16174;DHT22;14031;50.158;8.626;2023-02-13T03:24:24;8.20;99.90
16174;DHT22;14031;50.158;8.626;2023-02-13T03:26:57;8.10;99.90
16174;DHT22;14031;50.158;8.626;2023-02-13T03:29:34;8.10;99.90
16174;DHT22;14031;50.158;8.626;2023-02-13T03:32:27;8.00;99.90
16174;DHT22;14031;50.158;8.626;2023-02-13T03:35:06;7.90;99.90
16174;DHT22;14031;50.158;8.626;2023-02-13T03:38:02;8.00;99.90
16174;DHT22;14031;50.158;8.626;2023-02-13T03:40:36;7.90;99.90
16174;DHT22;14031;50.158;8.626;2023-02-13T03:43:26;7.90;99.90
16174;DHT22;14031;50.158;8.626;2023-02-13T03:45:56;7.90;99.90
16174;DHT22;14031;50.158;8.626;2023-02-13T03:48:28;7.80;99.90
16174;DHT22;14031;50.158;8.626;2023-02-13T03:51:18;7.80;99.90
16174;DHT22;14031;50.158;8.626;2023-02-13T03:53:50;7.80;99.90
16174;DHT22;14031;50.158;8.626;2023-02-13T03:56:20;7.70;99.90
16174;DHT22;14031;50.158;8.626;2023-02-13T03:59:08;7.70;99.90
16174;DHT22;14031;50.158;8.626;2023-02-13T04:01:40;7.70;99.90
16174;DHT22;14031;50.158;8.626;2023-02-13T04:04:12;7.60;99.90
16174;DHT22;14031;50.158;8.626;2023-02-13T04:06:47;7.50;99.90
16174;DHT22;14031;50.158;8.626;2023-02-13T04:09:15;7.50;99.90
16174;DHT22;14031;50.158;8.626;2023-02-13T04:11:48;7.50;99.90
16174;DHT22;14031;50.158;8.626;2023-02-13T04:14:22;7.40;99.90
16174;DHT22;14031;50.158;8.626;2023-02-13T04:16:51;7.40;99.90
16174;DHT22;14031;50.158;8.626;2023-02-13T04:19:20;7.40;99.90
16174;DHT22;14031;50.158;8.626;2023-02-13T04:21:50;7.30;99.90
16174;DHT22;14031;50.158;8.626;2023-02-13T04:24:22;7.30;99.90
16174;DHT22;14031;50.158;8.626;2023-02-13T04:26:49;7.30;99.90
16174;DHT22;14031;50.158;8.626;2023-02-13T04:29:16;7.20;99.90
16174;DHT22;14031;50.158;8.626;2023-02-13T04:31:42;7.30;99.90
16174;DHT22;14031;50.158;8.626;2023-02-13T04:34:09;7.20;99.90
16174;DHT22;14031;50.158;8.626;2023-02-13T04:36:36;7.30;99.90
16174;DHT22;14031;50.158;8.626;2023-02-13T04:39:03;7.20;99.90
16174;DHT22;14031;50.158;8.626;2023-02-13T04:41:31;7.10;99.90
16174;DHT22;14031;50.158;8.626;2023-02-13T04:43:58;7.20;99.90
16174;DHT22;14031;50.158;8.626;2023-02-13T04:46:24;7.20;99.90
16174;DHT22;14031;50.158;8.626;2023-02-13T04:48:51;7.10;99.90
16174;DHT22;14031;50.158;8.626;2023-02-13T04:51:18;7.10;99.90
16174;DHT22;14031;50.158;8.626;2023-02-13T04:53:50;7.00;99.90
16174;DHT22;14031;50.158;8.626;2023-02-13T04:56:16;7.00;99.90
16174;DHT22;14031;50.158;8.626;2023-02-13T04:58:45;7.00;99.90
16174;DHT22;14031;50.158;8.626;2023-02-13T05:01:13;6.90;99.90
16174;DHT22;14031;50.158;8.626;2023-02-13T05:03:42;6.90;99.90
16174;DHT22;14031;50.158;8.626;2023-02-13T05:06:09;6.90;99.90
16174;DHT22;14031;50.158;8.626;2023-02-13T05:08:36;6.70;99.90
16174;DHT22;14031;50.158;8.626;2023-02-13T05:11:02;6.80;99.90
16174;DHT22;14031;50.158;8.626;2023-02-13T05:13:29;6.80;99.90
16174;DHT22;14031;50.158;8.626;2023-02-13T05:15:57;6.80;99.90
16174;DHT22;14031;50.158;8.626;2023-02-13T05:18:24;6.80;99.90
16174;DHT22;14031;50.158;8.626;2023-02-13T05:20:51;6.70;99.90
16174;DHT22;14031;50.158;8.626;2023-02-13T05:23:32;6.90;99.90
16174;DHT22;14031;50.158;8.626;2023-02-13T05:25:58;6.80;99.90
16174;DHT22;14031;50.158;8.626;2023-02-13T05:28:25;6.80;99.90
16174;DHT22;14031;50.158;8.626;2023-02-13T05:31:11;6.70;99.90
16174;DHT22;14031;50.158;8.626;2023-02-13T05:33:38;6.70;99.90
16174;DHT22;14031;50.158;8.626;2023-02-13T05:36:06;6.60;99.90
16174;DHT22;14031;50.158;8.626;2023-02-13T05:38:33;6.60;99.90
16174;DHT22;14031;50.158;8.626;2023-02-13T05:41:00;6.70;99.90
16174;DHT22;14031;50.158;8.626;2023-02-13T05:43:33;6.90;99.90
16174;DHT22;14031;50.158;8.626;2023-02-13T05:46:01;6.70;99.90
16174;DHT22;14031;50.158;8.626;2023-02-13T05:48:30;6.70;99.90
16174;DHT22;14031;50.158;8.626;2023-02-13T05:50:57;6.70;99.90
16174;DHT22;14031;50.158;8.626;2023-02-13T05:53:24;6.60;99.90
16174;DHT22;14031;50.158;8.626;2023-02-13T05:55:51;6.70;99.90
16174;DHT22;14031;50.158;8.626;2023-02-13T05:58:19;6.60;99.90
16174;DHT22;14031;50.158;8.626;2023-02-13T06:00:46;6.60;99.90
16174;DHT22;14031;50.158;8.626;2023-02-13T06:03:13;6.60;99.90
16174;DHT22;14031;50.158;8.626;2023-02-13T06:05:41;6.50;99.90
16174;DHT22;14031;50.158;8.626;2023-02-13T06:08:07;6.50;99.90
16174;DHT22;14031;50.158;8.626;2023-02-13T06:10:34;6.50;99.90
16174;DHT22;14031;50.158;8.626;2023-02-13T06:13:01;6.40;99.90
16174;DHT22;14031;50.158;8.626;2023-02-13T06:15:28;6.60;99.90
16174;DHT22;14031;50.158;8.626;2023-02-13T06:17:55;6.30;99.90
16174;DHT22;14031;50.158;8.626;2023-02-13T06:20:22;6.30;99.90
16174;DHT22;14031;50.158;8.626;2023-02-13T06:22:50;6.20;99.90
16174;DHT22;14031;50.158;8.626;2023-02-13T06:25:18;6.40;99.90
16174;DHT22;14031;50.158;8.626;2023-02-13T06:27:45;6.30;99.90
16174;DHT22;14031;50.158;8.626;2023-02-13T06:30:13;6.20;99.90
16174;DHT22;14031;50.158;8.626;2023-02-13T06:32:40;6.00;99.90
16174;DHT22;14031;50.158;8.626;2023-02-13T06:35:07;6.00;99.90
16174;DHT22;14031;50.158;8.626;2023-02-13T06:37:34;6.00;99.90
16174;DHT22;14031;50.158;8.626;2023-02-13T06:40:02;6.00;99.90
16174;DHT22;14031;50.158;8.626;2023-02-13T06:42:29;5.90;99.90
16174;DHT22;14031;50.158;8.626;2023-02-13T06:44:56;6.00;99.90
16174;DHT22;14031;50.158;8.626;2023-02-13T06:47:23;5.90;99.90
16174;DHT22;14031;50.158;8.626;2023-02-13T06:49:50;6.00;99.90
16174;DHT22;14031;50.158;8.626;2023-02-13T06:52:16;5.90;99.90
16174;DHT22;14031;50.158;8.626;2023-02-13T06:54:43;6.00;99.90
16174;DHT22;14031;50.158;8.626;2023-02-13T06:57:19;6.10;99.90
16174;DHT22;14031;50.158;8.626;2023-02-13T06:59:46;5.90;99.90
16174;DHT22;14031;50.158;8.626;2023-02-13T07:02:13;5.90;99.90
16174;DHT22;14031;50.158;8.626;2023-02-13T07:04:40;5.90;99.90
16174;DHT22;14031;50.158;8.626;2023-02-13T07:07:07;5.90;99.90
16174;DHT22;14031;50.158;8.626;2023-02-13T07:09:33;6.00;99.90
16174;DHT22;14031;50.158;8.626;2023-02-13T07:12:02;6.10;99.90
16174;DHT22;14031;50.158;8.626;2023-02-13T07:14:30;5.90;99.90
16174;DHT22;14031;50.158;8.626;2023-02-13T07:16:57;5.90;99.90
16174;DHT22;14031;50.158;8.626;2023-02-13T07:19:24;5.90;99.90
16174;DHT22;14031;50.158;8.626;2023-02-13T07:21:50;5.90;99.90
16174;DHT22;14031;50.158;8.626;2023-02-13T07:24:17;5.90;99.90
16174;DHT22;14031;50.158;8.626;2023-02-13T07:26:44;6.00;99.90
16174;DHT22;14031;50.158;8.626;2023-02-13T07:29:11;5.90;99.90
16174;DHT22;14031;50.158;8.626;2023-02-13T07:31:39;5.90;99.90
16174;DHT22;14031;50.158;8.626;2023-02-13T07:34:06;6.10;99.90
16174;DHT22;14031;50.158;8.626;2023-02-13T07:36:33;6.00;99.90
16174;DHT22;14031;50.158;8.626;2023-02-13T07:39:00;6.00;99.90
16174;DHT22;14031;50.158;8.626;2023-02-13T07:41:27;6.10;99.90
16174;DHT22;14031;50.158;8.626;2023-02-13T07:43:54;6.00;99.90
16174;DHT22;14031;50.158;8.626;2023-02-13T07:46:21;6.10;99.90
16174;DHT22;14031;50.158;8.626;2023-02-13T07:48:50;6.20;99.90
16174;DHT22;14031;50.158;8.626;2023-02-13T07:51:17;6.20;99.90
16174;DHT22;14031;50.158;8.626;2023-02-13T07:53:45;6.30;99.90
16174;DHT22;14031;50.158;8.626;2023-02-13T07:56:11;6.30;99.90
16174;DHT22;14031;50.158;8.626;2023-02-13T07:58:38;6.40;99.90
16174;DHT22;14031;50.158;8.626;2023-02-13T08:01:06;6.40;99.90
16174;DHT22;14031;50.158;8.626;2023-02-13T08:03:33;6.50;99.90
16174;DHT22;14031;50.158;8.626;2023-02-13T08:06:01;6.50;99.90
16174;DHT22;14031;50.158;8.626;2023-02-13T08:08:28;6.60;99.90
16174;DHT22;14031;50.158;8.626;2023-02-13T08:10:56;6.80;99.90
16174;DHT22;14031;50.158;8.626;2023-02-13T08:13:41;6.60;99.90
16174;DHT22;14031;50.158;8.626;2023-02-13T08:16:08;6.70;99.90
16174;DHT22;14031;50.158;8.626;2023-02-13T08:18:34;6.70;99.90
16174;DHT22;14031;50.158;8.626;2023-02-13T08:21:03;6.80;99.90
16174;DHT22;14031;50.158;8.626;2023-02-13T08:23:30;6.90;99.90
16174;DHT22;14031;50.158;8.626;2023-02-13T08:25:59;6.90;99.90
16174;DHT22;14031;50.158;8.626;2023-02-13T08:28:26;7.00;99.90
16174;DHT22;14031;50.158;8.626;2023-02-13T08:30:54;6.90;99.90
16174;DHT22;14031;50.158;8.626;2023-02-13T08:33:20;7.00;99.90
16174;DHT22;14031;50.158;8.626;2023-02-13T08:35:47;7.10;99.90
16174;DHT22;14031;50.158;8.626;2023-02-13T08:38:15;7.10;99.90
16174;DHT22;14031;50.158;8.626;2023-02-13T08:40:42;7.00;99.90
16174;DHT22;14031;50.158;8.626;2023-02-13T08:43:09;7.00;99.90
16174;DHT22;14031;50.158;8.626;2023-02-13T08:45:35;7.20;99.90
16174;DHT22;14031;50.158;8.626;2023-02-13T08:48:02;7.30;99.90
16174;DHT22;14031;50.158;8.626;2023-02-13T08:50:29;7.20;99.90
16174;DHT22;14031;50.158;8.626;2023-02-13T08:52:57;7.20;99.90
16174;DHT22;14031;50.158;8.626;2023-02-13T08:55:26;7.20;99.90
16174;DHT22;14031;50.158;8.626;2023-02-13T08:57:54;7.30;99.90
16174;DHT22;14031;50.158;8.626;2023-02-13T09:00:21;7.30;99.90
16174;DHT22;14031;50.158;8.626;2023-02-13T09:02:48;7.40;99.90
16174;DHT22;14031;50.158;8.626;2023-02-13T09:05:15;7.50;99.90
16174;DHT22;14031;50.158;8.626;2023-02-13T09:07:41;7.60;99.90
16174;DHT22;14031;50.158;8.626;2023-02-13T09:10:09;7.60;99.90
16174;DHT22;14031;50.158;8.626;2023-02-13T09:12:37;7.70;99.90
16174;DHT22;14031;50.158;8.626;2023-02-13T09:15:04;7.90;99.90
16174;DHT22;14031;50.158;8.626;2023-02-13T09:17:31;7.70;99.90
16174;DHT22;14031;50.158;8.626;2023-02-13T09:19:57;7.70;99.90
16174;DHT22;14031;50.158;8.626;2023-02-13T09:22:24;7.80;99.90
16174;DHT22;14031;50.158;8.626;2023-02-13T09:24:51;7.80;99.90
16174;DHT22;14031;50.158;8.626;2023-02-13T09:27:18;8.00;99.90
16174;DHT22;14031;50.158;8.626;2023-02-13T09:29:46;7.90;99.90
16174;DHT22;14031;50.158;8.626;2023-02-13T09:32:13;7.80;99.90
16174;DHT22;14031;50.158;8.626;2023-02-13T09:34:40;7.90;99.90
16174;DHT22;14031;50.158;8.626;2023-02-13T09:37:07;8.00;99.90
16174;DHT22;14031;50.158;8.626;2023-02-13T09:39:33;8.00;99.90
16174;DHT22;14031;50.158;8.626;2023-02-13T09:42:00;8.00;99.90
16174;DHT22;14031;50.158;8.626;2023-02-13T09:44:33;8.10;99.90
16174;DHT22;14031;50.158;8.626;2023-02-13T09:47:09;8.10;99.90
16174;DHT22;14031;50.158;8.626;2023-02-13T09:49:40;8.20;99.90
16174;DHT22;14031;50.158;8.626;2023-02-13T09:52:09;8.20;99.90
16174;DHT22;14031;50.158;8.626;2023-02-13T09:54:36;8.30;99.90
16174;DHT22;14031;50.158;8.626;2023-02-13T09:57:07;8.20;99.90
16174;DHT22;14031;50.158;8.626;2023-02-13T09:59:45;8.30;99.90
16174;DHT22;14031;50.158;8.626;2023-02-13T10:02:36;8.30;99.90
16174;DHT22;14031;50.158;8.626;2023-02-13T10:05:17;8.50;99.90
16174;DHT22;14031;50.158;8.626;2023-02-13T10:07:53;8.40;99.90
16174;DHT22;14031;50.158;8.626;2023-02-13T10:10:26;8.50;99.90
16174;DHT22;14031;50.158;8.626;2023-02-13T10:13:05;8.50;99.90
16174;DHT22;14031;50.158;8.626;2023-02-13T10:15:41;8.50;99.90
16174;DHT22;14031;50.158;8.626;2023-02-13T10:18:17;8.50;99.90
16174;DHT22;14031;50.158;8.626;2023-02-13T10:20:46;8.40;99.90
16174;DHT22;14031;50.158;8.626;2023-02-13T10:23:20;8.40;99.90
16174;DHT22;14031;50.158;8.626;2023-02-13T10:25:50;8.50;99.90
16174;DHT22;14031;50.158;8.626;2023-02-13T10:28:27;8.50;99.90
16174;DHT22;14031;50.158;8.626;2023-02-13T10:31:01;8.60;99.90
16174;DHT22;14031;50.158;8.626;2023-02-13T10:33:35;8.70;99.90
16174;DHT22;14031;50.158;8.626;2023-02-13T10:36:10;8.70;99.90
16174;DHT22;14031;50.158;8.626;2023-02-13T10:38:43;8.80;99.90
16174;DHT22;14031;50.158;8.626;2023-02-13T10:41:35;8.80;99.90
16174;DHT22;14031;50.158;8.626;2023-02-13T10:44:24;8.90;99.90
16174;DHT22;14031;50.158;8.626;2023-02-13T10:47:01;8.90;99.90
16174;DHT22;14031;50.158;8.626;2023-02-13T10:49:48;9.00;99.90
16174;DHT22;14031;50.158;8.626;2023-02-13T10:52:25;9.00;99.90
16174;DHT22;14031;50.158;8.626;2023-02-13T10:55:10;9.10;99.90
16174;DHT22;14031;50.158;8.626;2023-02-13T10:57:58;9.20;99.90
16174;DHT22;14031;50.158;8.626;2023-02-13T11:00:32;9.30;99.90
16174;DHT22;14031;50.158;8.626;2023-02-13T11:03:00;9.30;99.90
16174;DHT22;14031;50.158;8.626;2023-02-13T11:05:32;9.50;99.90
16174;DHT22;14031;50.158;8.626;2023-02-13T11:08:02;9.60;99.90
16174;DHT22;14031;50.158;8.626;2023-02-13T11:10:29;9.70;99.90
16174;DHT22;14031;50.158;8.626;2023-02-13T11:12:56;9.80;99.90
16174;DHT22;14031;50.158;8.626;2023-02-13T11:15:39;9.90;99.90
16174;DHT22;14031;50.158;8.626;2023-02-13T11:18:13;9.90;99.90
16174;DHT22;14031;50.158;8.626;2023-02-13T11:20:42;10.00;99.90
16174;DHT22;14031;50.158;8.626;2023-02-13T11:23:34;10.00;99.90
16174;DHT22;14031;50.158;8.626;2023-02-13T11:26:03;10.10;99.90
16174;DHT22;14031;50.158;8.626;2023-02-13T11:28:36;10.10;99.90
16174;DHT22;14031;50.158;8.626;2023-02-13T11:31:12;10.10;99.90
16174;DHT22;14031;50.158;8.626;2023-02-13T11:33:40;10.10;99.90
16174;DHT22;14031;50.158;8.626;2023-02-13T11:36:13;10.20;99.90
16174;DHT22;14031;50.158;8.626;2023-02-13T11:38:40;10.20;99.90
16174;DHT22;14031;50.158;8.626;2023-02-13T11:41:09;10.20;99.90
16174;DHT22;14031;50.158;8.626;2023-02-13T11:43:43;10.30;99.90
16174;DHT22;14031;50.158;8.626;2023-02-13T11:46:17;10.20;99.90
16174;DHT22;14031;50.158;8.626;2023-02-13T11:48:58;10.30;99.90
16174;DHT22;14031;50.158;8.626;2023-02-13T11:51:38;10.40;99.90
16174;DHT22;14031;50.158;8.626;2023-02-13T11:54:06;10.40;99.90
16174;DHT22;14031;50.158;8.626;2023-02-13T11:56:50;10.40;99.90
16174;DHT22;14031;50.158;8.626;2023-02-13T11:59:16;10.50;99.90
16174;DHT22;14031;50.158;8.626;2023-02-13T12:01:43;10.50;99.90
16174;DHT22;14031;50.158;8.626;2023-02-13T12:04:15;10.50;99.90
16174;DHT22;14031;50.158;8.626;2023-02-13T12:06:59;10.60;99.90
16174;DHT22;14031;50.158;8.626;2023-02-13T12:09:27;10.70;99.90
16174;DHT22;14031;50.158;8.626;2023-02-13T12:11:56;10.60;99.90
16174;DHT22;14031;50.158;8.626;2023-02-13T12:14:26;10.80;99.90
16174;DHT22;14031;50.158;8.626;2023-02-13T12:16:59;10.80;99.90
16174;DHT22;14031;50.158;8.626;2023-02-13T12:19:32;10.80;99.90
16174;DHT22;14031;50.158;8.626;2023-02-13T12:22:24;10.90;99.90
16174;DHT22;14031;50.158;8.626;2023-02-13T12:25:18;11.00;99.90
16174;DHT22;14031;50.158;8.626;2023-02-13T12:28:02;11.00;99.90
16174;DHT22;14031;50.158;8.626;2023-02-13T12:30:48;11.00;99.90
16174;DHT22;14031;50.158;8.626;2023-02-13T12:33:30;11.20;99.90
16174;DHT22;14031;50.158;8.626;2023-02-13T12:36:01;11.30;99.90
16174;DHT22;14031;50.158;8.626;2023-02-13T12:38:44;11.40;99.90
16174;DHT22;14031;50.158;8.626;2023-02-13T12:41:17;11.40;99.90
16174;DHT22;14031;50.158;8.626;2023-02-13T12:44:19;11.60;99.90
16174;DHT22;14031;50.158;8.626;2023-02-13T12:46:56;11.70;99.90
16174;DHT22;14031;50.158;8.626;2023-02-13T12:49:41;11.80;99.90
16174;DHT22;14031;50.158;8.626;2023-02-13T12:52:23;11.80;99.90
16174;DHT22;14031;50.158;8.626;2023-02-13T12:55:03;11.90;99.90
16174;DHT22;14031;50.158;8.626;2023-02-13T12:57:44;11.90;99.90
16174;DHT22;14031;50.158;8.626;2023-02-13T13:00:28;12.00;99.90
16174;DHT22;14031;50.158;8.626;2023-02-13T13:03:17;12.10;99.90
16174;DHT22;14031;50.158;8.626;2023-02-13T13:06:01;12.20;99.90
16174;DHT22;14031;50.158;8.626;2023-02-13T13:11:51;12.40;99.90
16174;DHT22;14031;50.158;8.626;2023-02-13T13:14:34;12.60;99.90
16174;DHT22;14031;50.158;8.626;2023-02-13T13:17:07;12.70;99.90
16174;DHT22;14031;50.158;8.626;2023-02-13T13:19:43;12.70;99.90
16174;DHT22;14031;50.158;8.626;2023-02-13T13:22:17;12.90;99.90
16174;DHT22;14031;50.158;8.626;2023-02-13T13:24:53;13.00;99.90
16174;DHT22;14031;50.158;8.626;2023-02-13T13:27:26;13.10;99.90
16174;DHT22;14031;50.158;8.626;2023-02-13T13:29:56;13.20;99.90
16174;DHT22;14031;50.158;8.626;2023-02-13T13:32:25;13.20;99.90
16174;DHT22;14031;50.158;8.626;2023-02-13T13:34:53;13.30;99.90
16174;DHT22;14031;50.158;8.626;2023-02-13T13:37:28;13.50;99.90
16174;DHT22;14031;50.158;8.626;2023-02-13T13:40:00;13.60;99.90
16174;DHT22;14031;50.158;8.626;2023-02-13T13:42:36;13.70;99.90
16174;DHT22;14031;50.158;8.626;2023-02-13T13:45:22;13.80;99.90
16174;DHT22;14031;50.158;8.626;2023-02-13T13:47:59;14.00;99.90
16174;DHT22;14031;50.158;8.626;2023-02-13T13:50:29;14.10;99.90
16174;DHT22;14031;50.158;8.626;2023-02-13T13:53:11;14.20;99.90
16174;DHT22;14031;50.158;8.626;2023-02-13T13:55:59;14.20;99.90
16174;DHT22;14031;50.158;8.626;2023-02-13T13:58:37;14.30;99.90
16174;DHT22;14031;50.158;8.626;2023-02-13T14:01:19;14.40;99.90
16174;DHT22;14031;50.158;8.626;2023-02-13T14:03:48;14.40;99.90
16174;DHT22;14031;50.158;8.626;2023-02-13T14:06:17;14.50;99.90
16174;DHT22;14031;50.158;8.626;2023-02-13T14:11:53;14.70;99.90
16174;DHT22;14031;50.158;8.626;2023-02-13T14:14:52;14.80;99.90
16174;DHT22;14031;50.158;8.626;2023-02-13T14:17:50;14.90;99.90
16174;DHT22;14031;50.158;8.626;2023-02-13T14:20:35;15.00;99.90
16174;DHT22;14031;50.158;8.626;2023-02-13T14:23:11;15.10;99.90
16174;DHT22;14031;50.158;8.626;2023-02-13T14:25:39;15.30;99.90
16174;DHT22;14031;50.158;8.626;2023-02-13T14:28:22;15.40;99.90
16174;DHT22;14031;50.158;8.626;2023-02-13T14:30:52;15.50;99.90
16174;DHT22;14031;50.158;8.626;2023-02-13T14:33:33;15.60;99.90
16174;DHT22;14031;50.158;8.626;2023-02-13T14:36:03;15.70;99.90
16174;DHT22;14031;50.158;8.626;2023-02-13T14:38:31;15.60;99.90
16174;DHT22;14031;50.158;8.626;2023-02-13T14:40:59;15.70;99.90
16174;DHT22;14031;50.158;8.626;2023-02-13T14:43:35;15.70;99.90
16174;DHT22;14031;50.158;8.626;2023-02-13T14:46:29;15.80;99.90
16174;DHT22;14031;50.158;8.626;2023-02-13T14:49:01;15.80;99.90
16174;DHT22;14031;50.158;8.626;2023-02-13T14:51:33;15.80;99.90
16174;DHT22;14031;50.158;8.626;2023-02-13T14:54:11;15.90;99.90
16174;DHT22;14031;50.158;8.626;2023-02-13T14:56:49;15.90;99.90
16174;DHT22;14031;50.158;8.626;2023-02-13T14:59:19;15.90;99.90
16174;DHT22;14031;50.158;8.626;2023-02-13T15:01:52;15.80;99.90
16174;DHT22;14031;50.158;8.626;2023-02-13T15:04:25;15.80;99.90
16174;DHT22;14031;50.158;8.626;2023-02-13T15:06:54;15.70;99.90
16174;DHT22;14031;50.158;8.626;2023-02-13T15:09:33;15.70;99.90
16174;DHT22;14031;50.158;8.626;2023-02-13T15:12:02;15.60;99.90
16174;DHT22;14031;50.158;8.626;2023-02-13T15:14:33;15.40;99.90
16174;DHT22;14031;50.158;8.626;2023-02-13T15:17:07;15.20;99.90
16174;DHT22;14031;50.158;8.626;2023-02-13T15:19:44;14.90;99.90
16174;DHT22;14031;50.158;8.626;2023-02-13T15:22:18;14.80;99.90
16174;DHT22;14031;50.158;8.626;2023-02-13T15:24:47;14.60;99.90
16174;DHT22;14031;50.158;8.626;2023-02-13T15:27:18;14.40;99.90
16174;DHT22;14031;50.158;8.626;2023-02-13T15:29:59;14.20;99.90
16174;DHT22;14031;50.158;8.626;2023-02-13T15:32:32;14.00;99.90
16174;DHT22;14031;50.158;8.626;2023-02-13T15:34:59;13.90;99.90
16174;DHT22;14031;50.158;8.626;2023-02-13T15:37:28;13.80;99.90
16174;DHT22;14031;50.158;8.626;2023-02-13T15:39:55;13.60;99.90
16174;DHT22;14031;50.158;8.626;2023-02-13T15:42:38;13.50;99.90
16174;DHT22;14031;50.158;8.626;2023-02-13T15:45:13;13.30;99.90
16174;DHT22;14031;50.158;8.626;2023-02-13T15:47:42;13.20;99.90
16174;DHT22;14031;50.158;8.626;2023-02-13T15:50:15;13.20;99.90
16174;DHT22;14031;50.158;8.626;2023-02-13T15:52:42;13.00;99.90
16174;DHT22;14031;50.158;8.626;2023-02-13T15:55:17;13.00;99.90
16174;DHT22;14031;50.158;8.626;2023-02-13T15:57:45;13.00;99.90
16174;DHT22;14031;50.158;8.626;2023-02-13T16:00:20;12.80;99.90
16174;DHT22;14031;50.158;8.626;2023-02-13T16:02:51;12.80;99.90
16174;DHT22;14031;50.158;8.626;2023-02-13T16:05:19;12.80;99.90
16174;DHT22;14031;50.158;8.626;2023-02-13T16:07:48;12.80;99.90
16174;DHT22;14031;50.158;8.626;2023-02-13T16:10:17;12.70;99.90
16174;DHT22;14031;50.158;8.626;2023-02-13T16:12:45;12.70;99.90
16174;DHT22;14031;50.158;8.626;2023-02-13T16:15:14;12.60;99.90
16174;DHT22;14031;50.158;8.626;2023-02-13T16:17:43;12.60;99.90
16174;DHT22;14031;50.158;8.626;2023-02-13T16:20:19;12.50;99.90